Time;durP1;ratioP1;P1;durP2;ratioP2;P2;SDS_P1;SDS_P2;PMS_P1;PMS_P2;Temp;Humidity;BMP_temperature;BMP_pressure;BME280_temperature;BME280_humidity;BME280_pressure;Samples;Min_cycle;Max_cycle;Signal;HPM_P1;HPM_P2
2023/10/11 00:03:05;;;;;;;2.03;1.50;;;19.40;66.90;;;;;;5069982;28;20035;-64
2023/10/11 00:05:37;;;;;;;4.50;2.10;;;19.40;66.80;;;;;;5069452;28;20531;-62
2023/10/11 00:08:03;;;;;;;2.10;1.63;;;19.40;67.50;;;;;;5070321;28;20016;-61
2023/10/11 00:10:29;;;;;;;3.53;2.05;;;19.40;66.80;;;;;;5069661;28;20086;-62
2023/10/11 00:12:58;;;;;;;3.50;1.60;;;19.30;67.00;;;;;;5051683;28;20425;-61
2023/10/11 00:15:29;;;;;;;4.65;1.35;;;19.30;67.10;;;;;;5070636;28;20036;-64
2023/10/11 00:17:58;;;;;;;1.92;1.40;;;19.30;67.20;;;;;;5067785;28;20028;-66
2023/10/11 00:20:47;;;;;;;3.42;1.95;;;19.30;67.20;;;;;;5040753;28;20021;-66
2023/10/11 00:23:15;;;;;;;4.32;1.85;;;19.30;67.20;;;;;;5067580;28;20487;-66
2023/10/11 00:25:42;;;;;;;4.75;1.90;;;19.30;67.30;;;;;;5068078;28;20777;-65
2023/10/11 00:28:08;;;;;;;3.78;1.85;;;19.30;67.30;;;;;;5066344;28;20031;-66
2023/10/11 00:30:40;;;;;;;3.42;1.50;;;19.20;67.30;;;;;;5070887;28;20033;-66
2023/10/11 00:33:09;;;;;;;4.72;1.70;;;19.20;67.50;;;;;;5068696;28;20055;-64
2023/10/11 00:35:48;;;;;;;5.10;2.15;;;19.10;67.60;;;;;;5065066;28;20035;-63
2023/10/11 00:38:19;;;;;;;4.47;2.38;;;19.20;67.70;;;;;;5068501;28;20043;-66
2023/10/11 00:41:00;;;;;;;4.45;2.53;;;19.20;67.60;;;;;;5064406;28;20036;-66
2023/10/11 00:43:37;;;;;;;4.30;1.95;;;19.10;67.60;;;;;;5067395;28;20059;-66
2023/10/11 00:46:08;;;;;;;2.25;1.67;;;19.00;67.80;;;;;;5059438;28;20087;-66
2023/10/11 00:48:51;;;;;;;4.30;1.90;;;19.00;68.00;;;;;;5066427;28;20515;-66
2023/10/11 00:51:20;;;;;;;2.03;1.40;;;19.00;68.00;;;;;;5053549;28;20028;-66
2023/10/11 00:53:47;;;;;;;3.08;1.70;;;19.00;67.90;;;;;;5070099;28;20028;-66
2023/10/11 00:56:14;;;;;;;3.47;1.48;;;19.00;67.80;;;;;;5066411;28;20036;-66
2023/10/11 00:58:41;;;;;;;2.85;2.10;;;19.10;67.70;;;;;;5065529;28;20391;-66
2023/10/11 01:01:08;;;;;;;4.20;1.88;;;19.10;67.60;;;;;;5068189;28;20078;-66
2023/10/11 01:03:35;;;;;;;2.47;1.95;;;19.10;67.50;;;;;;5063716;28;20048;-66
2023/10/11 01:06:02;;;;;;;2.80;1.80;;;19.10;67.50;;;;;;5064048;28;20032;-66
2023/10/11 01:08:48;;;;;;;2.35;1.67;;;19.10;67.60;;;;;;5069749;28;20024;-66
2023/10/11 01:11:14;;;;;;;4.32;1.73;;;19.10;67.60;;;;;;5068566;28;20032;-66
2023/10/11 01:13:50;;;;;;;2.38;1.67;;;19.10;67.60;;;;;;5065845;28;20391;-63
2023/10/11 01:16:17;;;;;;;3.90;2.25;;;19.10;67.60;;;;;;5065306;28;20035;-66
2023/10/11 01:18:43;;;;;;;3.53;2.35;;;19.10;67.60;;;;;;5068838;28;20028;-66
2023/10/11 01:21:09;;;;;;;2.38;1.83;;;19.10;67.50;;;;;;5070601;28;20413;-66
2023/10/11 01:23:35;;;;;;;4.30;1.70;;;19.10;67.70;;;;;;5061570;28;20025;-63
2023/10/11 01:26:08;;;;;;;3.05;1.38;;;19.00;67.60;;;;;;5061372;28;20032;-66
2023/10/11 01:28:35;;;;;;;2.35;1.55;;;19.00;67.70;;;;;;5065099;28;20070;-66
2023/10/11 01:31:08;;;;;;;2.85;2.00;;;19.00;67.90;;;;;;5064930;28;20074;-66
2023/10/11 01:33:40;;;;;;;2.42;1.90;;;18.90;67.80;;;;;;5065672;28;20021;-65
2023/10/11 01:36:08;;;;;;;4.47;2.28;;;18.90;68.00;;;;;;5035326;28;20029;-66
2023/10/11 01:38:46;;;;;;;3.92;2.50;;;18.90;68.00;;;;;;5061131;28;20027;-66
2023/10/11 01:41:21;;;;;;;3.63;2.00;;;18.80;68.00;;;;;;5062328;28;20033;-66
2023/10/11 01:43:49;;;;;;;5.25;2.65;;;18.80;68.00;;;;;;5060979;28;20029;-66
2023/10/11 01:46:16;;;;;;;3.85;1.73;;;18.80;68.00;;;;;;5063490;28;20041;-63
2023/10/11 01:48:45;;;;;;;6.57;1.95;;;18.90;68.10;;;;;;5045450;28;20070;-63
2023/10/11 01:51:21;;;;;;;4.05;1.77;;;18.80;68.10;;;;;;5066590;28;20440;-63
2023/10/11 01:53:47;;;;;;;3.72;1.73;;;18.80;68.10;;;;;;5068009;28;20082;-63
2023/10/11 01:56:13;;;;;;;5.35;2.53;;;18.90;68.10;;;;;;5066823;28;20407;-63
2023/10/11 01:58:42;;;;;;;3.00;1.92;;;18.80;68.10;;;;;;5066008;28;20039;-63
2023/10/11 02:01:23;;;;;;;3.78;2.33;;;18.80;68.20;;;;;;5048626;28;20036;-63
2023/10/11 02:03:56;;;;;;;4.10;2.05;;;18.80;68.30;;;;;;5065304;28;20060;-63
2023/10/11 02:06:23;;;;;;;2.45;1.98;;;18.80;68.30;;;;;;5064732;28;20404;-63
2023/10/11 02:08:50;;;;;;;3.72;2.40;;;18.70;68.40;;;;;;5063849;28;20045;-63
2023/10/11 02:11:16;;;;;;;2.42;1.70;;;18.70;68.60;;;;;;5067516;28;20471;-63
2023/10/11 02:13:45;;;;;;;3.67;1.55;;;18.70;68.60;;;;;;5064454;28;20391;-66
2023/10/11 02:16:14;;;;;;;5.82;2.22;;;18.70;68.50;;;;;;5068279;28;20093;-66
2023/10/11 02:18:40;;;;;;;2.63;1.80;;;18.70;68.50;;;;;;5066906;28;20490;-66
2023/10/11 02:21:06;;;;;;;3.08;1.58;;;18.70;68.50;;;;;;5064487;28;20483;-66
2023/10/11 02:23:39;;;;;;;2.83;1.92;;;18.80;69.20;;;;;;5056474;28;20127;-65
2023/10/11 02:26:16;;;;;;;3.22;2.38;;;18.70;68.50;;;;;;5033626;28;20032;-63
2023/10/11 02:28:43;;;;;;;4.53;2.33;;;18.70;68.50;;;;;;5064509;28;20032;-63
2023/10/11 02:31:13;;;;;;;6.53;2.70;;;18.70;68.60;;;;;;5069118;28;20367;-63
2023/10/11 02:33:39;;;;;;;3.35;2.08;;;18.70;68.70;;;;;;5065716;28;20017;-63
2023/10/11 02:36:09;;;;;;;4.90;2.38;;;18.70;68.80;;;;;;5048013;28;20033;-63
2023/10/11 02:38:51;;;;;;;3.28;1.70;;;18.70;68.70;;;;;;5065820;28;20029;-63
2023/10/11 02:41:26;;;;;;;2.88;2.25;;;18.70;68.70;;;;;;5061738;28;20402;-63
2023/10/11 02:43:53;;;;;;;2.83;1.52;;;18.70;68.70;;;;;;5066373;28;20037;-63
2023/10/11 02:46:23;;;;;;;3.55;1.77;;;18.70;68.80;;;;;;5064185;28;20031;-63
2023/10/11 02:48:53;;;;;;;3.35;1.85;;;18.70;68.70;;;;;;5063310;28;20045;-63
2023/10/11 02:51:24;;;;;;;5.40;2.00;;;18.70;68.80;;;;;;5068861;28;20056;-63
2023/10/11 02:53:52;;;;;;;5.07;2.40;;;18.70;68.80;;;;;;5066455;28;20048;-63
2023/10/11 02:56:18;;;;;;;4.25;2.30;;;18.60;68.90;;;;;;5064682;28;20049;-63
2023/10/11 02:58:44;;;;;;;5.15;2.38;;;18.70;69.00;;;;;;5067656;28;20043;-64
2023/10/11 03:01:20;;;;;;;3.20;1.85;;;18.60;68.90;;;;;;5066938;28;20036;-65
2023/10/11 03:03:52;;;;;;;2.50;1.52;;;18.60;69.00;;;;;;5065389;28;20112;-65
2023/10/11 03:06:18;;;;;;;3.33;2.33;;;18.60;69.10;;;;;;5063638;28;20060;-64
2023/10/11 03:08:45;;;;;;;4.05;2.08;;;18.50;69.20;;;;;;5054996;28;20031;-64
2023/10/11 03:11:15;;;;;;;4.28;1.90;;;18.50;69.40;;;;;;5060601;28;20040;-67
2023/10/11 03:13:42;;;;;;;2.17;1.50;;;18.50;69.50;;;;;;5059177;28;20044;-64
2023/10/11 03:16:17;;;;;;;2.90;2.13;;;18.40;69.60;;;;;;5068003;28;20033;-64
2023/10/11 03:18:46;;;;;;;4.22;2.00;;;18.40;69.60;;;;;;5066264;28;20508;-65
2023/10/11 03:21:19;;;;;;;4.93;1.58;;;18.40;69.70;;;;;;5064575;28;20102;-65
2023/10/11 03:23:54;;;;;;;4.35;2.05;;;18.40;69.80;;;;;;5062642;28;20032;-65
2023/10/11 03:29:03;;;;;;;4.20;1.90;;;18.40;69.80;;;;;;5059231;28;20053;-65
2023/10/11 03:31:33;;;;;;;1.88;1.75;;;18.30;69.90;;;;;;5067138;28;20024;-65
2023/10/11 03:34:10;;;;;;;3.40;2.25;;;18.30;70.00;;;;;;5065010;28;20017;-65
2023/10/11 03:36:43;;;;;;;3.08;1.85;;;18.20;70.10;;;;;;5058440;28;20392;-65
2023/10/11 03:39:15;;;;;;;2.55;1.50;;;18.20;70.20;;;;;;5068176;28;20490;-65
2023/10/11 03:41:47;;;;;;;2.03;1.77;;;18.20;70.20;;;;;;5061515;28;20028;-65
2023/10/11 03:44:20;;;;;;;2.80;2.03;;;18.20;70.30;;;;;;5060006;28;20042;-65
2023/10/11 03:46:47;;;;;;;4.22;2.22;;;18.20;70.30;;;;;;5068596;28;20371;-65
2023/10/11 03:49:36;;;;;;;3.65;2.00;;;18.20;70.40;;;;;;5063952;28;20649;-65
2023/10/11 03:52:04;;;;;;;2.65;1.63;;;18.20;71.00;;;;;;5063789;28;20376;-65
2023/10/11 03:54:30;;;;;;;2.03;1.65;;;18.20;70.40;;;;;;5067318;28;20044;-64
2023/10/11 03:56:56;;;;;;;6.72;2.35;;;18.10;70.40;;;;;;5067475;28;20032;-65
2023/10/11 03:59:25;;;;;;;5.03;2.00;;;18.10;70.40;;;;;;5065611;28;20095;-65
2023/10/11 04:01:52;;;;;;;4.15;2.35;;;18.00;70.70;;;;;;5067775;28;20442;-65
2023/10/11 04:04:20;;;;;;;2.70;1.60;;;18.00;70.80;;;;;;5063493;28;20039;-65
2023/10/11 04:06:51;;;;;;;3.40;2.15;;;18.00;71.00;;;;;;5070162;28;20025;-65
2023/10/11 04:12:10;;;;;;;6.57;1.90;;;17.90;71.20;;;;;;5048009;28;21446;-65
2023/10/11 04:14:47;;;;;;;3.40;2.05;;;17.90;71.30;;;;;;5064270;28;20486;-62
2023/10/11 04:19:49;;;;;;;3.45;1.80;;;17.80;71.50;;;;;;5068462;28;20403;-65
2023/10/11 04:22:23;;;;;;;4.10;1.92;;;17.80;71.50;;;;;;5062909;28;20440;-65
2023/10/11 04:24:53;;;;;;;5.15;2.63;;;17.80;71.50;;;;;;5065445;28;20028;-62
2023/10/11 04:29:52;;;;;;;4.40;2.05;;;17.80;71.90;;;;;;5063441;28;20435;-62
2023/10/11 04:35:21;;;;;;;2.60;2.35;;;17.80;71.90;;;;;;5005637;28;20104;-65
2023/10/11 04:37:52;;;;;;;4.78;2.40;;;17.80;72.00;;;;;;5053914;28;20594;-65
2023/10/11 04:43:08;;;;;;;2.50;1.80;;;17.70;72.30;;;;;;5069996;28;20041;-65
2023/10/11 04:45:46;;;;;;;4.55;2.28;;;17.70;72.30;;;;;;5064257;28;20069;-65
2023/10/11 04:48:18;;;;;;;3.92;2.08;;;17.70;72.20;;;;;;5059839;28;20035;-65
2023/10/11 04:50:50;;;;;;;3.38;2.05;;;17.70;72.30;;;;;;5064589;28;20030;-65
2023/10/11 04:53:21;;;;;;;5.13;2.58;;;17.70;72.40;;;;;;5067832;28;20021;-62
2023/10/11 04:56:01;;;;;;;2.97;1.73;;;17.60;72.60;;;;;;5057734;28;20094;-62
2023/10/11 05:01:08;;;;;;;4.35;2.20;;;17.60;72.70;;;;;;5060533;28;20043;-62
2023/10/11 05:03:37;;;;;;;4.53;2.67;;;17.60;72.90;;;;;;5062791;28;20509;-62
2023/10/11 05:06:12;;;;;;;3.55;1.98;;;17.50;73.00;;;;;;5060663;28;20434;-63
2023/10/11 05:08:51;;;;;;;5.50;2.47;;;17.60;73.00;;;;;;5048949;28;20155;-63
2023/10/11 05:11:36;;;;;;;5.20;2.55;;;17.60;73.50;;;;;;5057384;28;20683;-63
2023/10/11 05:16:49;;;;;;;4.00;2.28;;;17.60;73.00;;;;;;5062267;28;20059;-63
2023/10/11 05:19:20;;;;;;;2.30;1.45;;;17.60;73.00;;;;;;5068540;28;20029;-65
2023/10/11 05:21:53;;;;;;;3.80;2.30;;;17.60;72.90;;;;;;5062019;28;20028;-65
2023/10/11 05:24:44;;;;;;;6.43;2.35;;;17.60;72.90;;;;;;5069654;28;20493;-66
2023/10/11 05:27:57;;;;;;;4.22;1.90;;;17.60;73.10;;;;;;5054731;28;20627;-65
2023/10/11 05:32:54;;;;;;;7.05;2.38;;;17.50;73.20;;;;;;5070087;28;20375;-65
2023/10/11 05:51:32;;;;;;;2.20;1.52;;;17.50;73.40;;;;;;5066755;28;20099;-63
2023/10/11 05:53:59;;;;;;;5.05;2.58;;;17.50;73.40;;;;;;5051987;28;20048;-65
2023/10/11 05:56:25;;;;;;;3.10;2.63;;;17.60;73.50;;;;;;5062419;28;20056;-65
2023/10/11 05:58:53;;;;;;;5.00;2.40;;;17.50;73.40;;;;;;5068428;28;20094;-63
2023/10/11 06:01:21;;;;;;;4.97;2.78;;;17.60;73.60;;;;;;5044746;28;20033;-63
2023/10/11 06:03:55;;;;;;;5.07;2.20;;;17.60;73.50;;;;;;5057569;28;20083;-63
2023/10/11 06:06:32;;;;;;;7.70;3.15;;;17.70;73.50;;;;;;5066228;28;20071;-63
2023/10/11 06:08:58;;;;;;;7.28;2.72;;;17.60;73.60;;;;;;5067277;28;20027;-65
2023/10/11 06:11:29;;;;;;;3.70;2.10;;;17.70;73.50;;;;;;5067260;28;20029;-65
2023/10/11 06:13:58;;;;;;;3.88;2.35;;;17.70;73.50;;;;;;5068787;28;20067;-66
2023/10/11 06:16:24;;;;;;;3.17;2.28;;;17.70;73.60;;;;;;5057440;28;20506;-65
2023/10/11 06:18:55;;;;;;;5.20;2.38;;;17.70;73.70;;;;;;5060407;28;20108;-65
2023/10/11 06:21:33;;;;;;;2.03;1.70;;;17.70;73.70;;;;;;5057032;28;20037;-65
2023/10/11 06:24:00;;;;;;;5.32;2.08;;;17.70;73.80;;;;;;5066843;28;20051;-65
2023/10/11 06:26:29;;;;;;;2.10;1.88;;;17.70;73.70;;;;;;5045836;28;20033;-65
2023/10/11 06:29:07;;;;;;;4.20;2.28;;;17.70;73.80;;;;;;5063913;28;20024;-65
2023/10/11 06:31:39;;;;;;;5.80;3.65;;;17.80;73.80;;;;;;5050922;28;20373;-65
2023/10/11 06:34:15;;;;;;;3.28;2.35;;;17.70;74.00;;;;;;5059151;28;20033;-65
2023/10/11 06:36:50;;;;;;;5.63;2.42;;;17.80;74.10;;;;;;5063264;28;20025;-65
2023/10/11 06:42:21;;;;;;;3.20;2.50;;;17.80;74.00;;;;;;5067237;28;20429;-65
2023/10/11 06:44:57;;;;;;;4.00;2.88;;;17.80;73.90;;;;;;5054652;28;20467;-65
2023/10/11 06:47:25;;;;;;;6.03;2.10;;;17.90;74.00;;;;;;5068708;28;20116;-66
2023/10/11 06:49:55;;;;;;;13.10;4.00;;;17.90;74.00;;;;;;5050088;28;20021;-67
2023/10/11 06:52:25;;;;;;;5.30;3.28;;;17.90;74.10;;;;;;5065910;28;20440;-66
2023/10/11 06:55:14;;;;;;;5.47;2.30;;;18.00;74.10;;;;;;5065163;28;20063;-66
2023/10/11 06:57:40;;;;;;;3.58;2.47;;;18.00;74.20;;;;;;5060259;28;20036;-67
2023/10/11 07:00:24;;;;;;;3.17;1.77;;;18.00;74.20;;;;;;5068972;28;20029;-66
2023/10/11 07:03:26;;;;;;;6.05;3.00;;;18.10;74.20;;;;;;5063229;28;20036;-66
2023/10/11 07:05:59;;;;;;;7.82;2.95;;;18.10;74.20;;;;;;5054912;28;20052;-66
2023/10/11 07:08:35;;;;;;;5.43;2.75;;;18.10;74.40;;;;;;5062803;28;20412;-67
2023/10/11 07:11:16;;;;;;;4.97;2.95;;;18.10;74.30;;;;;;5064789;28;20074;-64
2023/10/11 07:13:57;;;;;;;3.40;2.47;;;18.20;74.30;;;;;;5062969;28;20113;-65
2023/10/11 07:16:31;;;;;;;6.97;3.25;;;18.20;74.40;;;;;;5064917;28;20037;-64
2023/10/11 07:18:58;;;;;;;7.95;3.08;;;18.20;74.50;;;;;;5063954;28;20028;-62
2023/10/11 07:21:41;;;;;;;4.32;2.58;;;18.20;74.80;;;;;;5067285;28;20048;-66
2023/10/11 07:26:56;;;;;;;4.32;3.00;;;18.10;75.10;;;;;;5066406;28;20044;-63
2023/10/11 07:29:22;;;;;;;3.08;2.42;;;18.10;75.00;;;;;;5062865;28;20143;-63
2023/10/11 07:31:51;;;;;;;5.72;2.90;;;18.10;75.00;;;;;;5064665;28;20020;-63
2023/10/11 07:34:21;;;;;;;7.07;3.13;;;18.20;75.20;;;;;;5059994;28;20460;-63
2023/10/11 07:36:50;;;;;;;4.55;3.17;;;18.20;75.40;;;;;;5062988;28;20111;-62
2023/10/11 07:39:25;;;;;;;5.18;2.40;;;18.20;75.50;;;;;;5066230;28;20029;-63
2023/10/11 07:41:52;;;;;;;10.57;4.03;;;18.20;75.40;;;;;;5063686;28;20032;-63
2023/10/11 07:44:18;;;;;;;8.88;3.60;;;18.20;75.70;;;;;;5064151;28;20104;-63
2023/10/11 07:46:54;;;;;;;5.38;2.97;;;18.20;75.80;;;;;;5069898;28;20540;-63
2023/10/11 07:49:23;;;;;;;4.93;2.42;;;18.20;75.90;;;;;;5066408;28;20033;-63
2023/10/11 07:51:53;;;;;;;5.40;2.60;;;18.30;75.90;;;;;;5065492;28;20569;-63
2023/10/11 07:54:22;;;;;;;4.82;3.03;;;18.30;75.70;;;;;;5066779;28;20035;-63
2023/10/11 07:56:55;;;;;;;5.53;2.65;;;18.40;75.90;;;;;;5069566;28;20032;-63
2023/10/11 07:59:26;;;;;;;6.35;2.83;;;18.40;76.00;;;;;;5071541;28;20031;-63
2023/10/11 08:01:54;;;;;;;6.90;3.00;;;18.40;76.00;;;;;;5067363;28;20032;-63
2023/10/11 08:04:22;;;;;;;4.60;3.47;;;18.40;76.10;;;;;;5050146;28;20032;-66
2023/10/11 08:06:59;;;;;;;6.28;3.55;;;18.40;76.30;;;;;;5070370;28;20096;-63
2023/10/11 08:09:28;;;;;;;4.70;2.80;;;18.40;76.60;;;;;;5060218;28;20190;-63
2023/10/11 08:11:57;;;;;;;8.90;3.35;;;18.40;76.60;;;;;;5066600;28;20021;-63
2023/10/11 08:14:28;;;;;;;4.32;3.13;;;18.40;76.60;;;;;;5068333;28;20518;-63
2023/10/11 08:16:56;;;;;;;4.40;2.72;;;18.40;76.50;;;;;;5056984;28;20024;-63
2023/10/11 08:19:22;;;;;;;7.10;4.07;;;18.50;76.60;;;;;;5064119;28;20146;-62
2023/10/11 08:21:54;;;;;;;5.50;3.58;;;18.50;76.50;;;;;;5067798;28;20028;-65
2023/10/11 08:24:25;;;;;;;5.35;3.30;;;18.60;76.70;;;;;;5066494;28;20021;-64
2023/10/11 08:26:52;;;;;;;4.70;3.03;;;18.60;76.60;;;;;;5065576;28;20028;-64
2023/10/11 08:29:30;;;;;;;7.07;2.90;;;18.80;76.50;;;;;;5065057;28;20051;-64
2023/10/11 08:32:00;;;;;;;6.47;2.95;;;18.90;76.40;;;;;;5066883;28;20078;-65
2023/10/11 08:34:28;;;;;;;7.55;3.65;;;19.00;76.10;;;;;;5051560;28;20060;-63
2023/10/11 08:36:54;;;;;;;5.57;3.58;;;19.10;76.00;;;;;;5069532;28;20100;-63
2023/10/11 08:39:46;;;;;;;7.47;2.80;;;19.10;76.00;;;;;;5070646;28;20064;-63
2023/10/11 08:42:13;;;;;;;8.15;4.75;;;19.20;75.90;;;;;;5065391;28;20503;-63
2023/10/11 08:44:40;;;;;;;7.13;4.15;;;19.10;76.10;;;;;;5070455;28;20020;-64
2023/10/11 08:47:06;;;;;;;5.07;2.88;;;19.00;76.40;;;;;;5069151;28;20033;-63
2023/10/11 08:49:41;;;;;;;6.90;4.20;;;19.00;76.50;;;;;;5052089;28;20400;-64
2023/10/11 08:52:10;;;;;;;4.82;3.03;;;18.90;77.10;;;;;;5067911;28;20508;-62
2023/10/11 08:54:38;;;;;;;5.10;3.10;;;18.90;77.20;;;;;;5067741;28;20039;-62
2023/10/11 08:57:04;;;;;;;7.28;4.22;;;18.90;77.30;;;;;;5064617;28;20115;-64
2023/10/11 08:59:39;;;;;;;5.20;3.08;;;18.90;77.40;;;;;;5067585;28;20032;-63
2023/10/11 09:02:08;;;;;;;5.60;3.10;;;18.90;77.40;;;;;;5064649;28;20112;-63
2023/10/11 09:04:35;;;;;;;6.28;4.15;;;18.90;77.60;;;;;;5047135;28;20020;-66
2023/10/11 09:07:02;;;;;;;7.63;3.78;;;18.90;78.00;;;;;;5062111;28;20076;-66
2023/10/11 09:09:39;;;;;;;13.13;6.57;;;18.80;78.30;;;;;;5063120;28;20051;-66
2023/10/11 09:12:26;;;;;;;5.82;3.42;;;18.80;79.20;;;;;;5068640;28;20032;-66
2023/10/11 09:15:04;;;;;;;9.48;5.05;;;18.80;79.50;;;;;;5050805;28;20112;-63
2023/10/11 09:17:38;;;;;;;10.05;6.05;;;18.70;79.80;;;;;;5051658;28;20594;-66
2023/10/11 09:20:40;;;;;;;11.10;5.35;;;18.70;80.10;;;;;;5062580;28;20036;-66
2023/10/11 09:22:58;;;;;;;9.80;4.53;;;18.70;80.10;;;;;;5062570;28;20040;-63
2023/10/11 09:25:33;;;;;;;7.45;4.18;;;18.70;80.10;;;;;;5063402;28;20036;-63
2023/10/11 09:27:59;;;;;;;5.97;4.15;;;18.80;80.20;;;;;;5048305;28;20020;-63
2023/10/11 09:30:27;;;;;;;10.98;5.43;;;18.80;80.00;;;;;;5065712;28;20396;-63
2023/10/11 09:32:59;;;;;;;9.32;5.25;;;18.90;80.90;;;;;;5069286;28;20048;-63
2023/10/11 09:35:28;;;;;;;;;;;18.80;80.60;;;;;;5067877;28;20037;-63
2023/10/11 09:37:58;;;;;;;7.90;4.90;;;18.80;80.80;;;;;;5065971;28;19940;-63
2023/10/11 09:40:34;;;;;;;9.57;5.43;;;18.80;80.50;;;;;;5052698;28;20032;-63
2023/10/11 09:43:01;;;;;;;16.45;5.90;;;18.90;80.80;;;;;;5065796;28;20025;-63
2023/10/11 09:45:42;;;;;;;14.63;5.50;;;18.90;81.50;;;;;;5066666;28;20037;-63
2023/10/11 09:48:12;;;;;;;7.25;4.43;;;18.90;80.90;;;;;;5066328;28;20107;-63
2023/10/11 09:50:41;;;;;;;9.07;5.10;;;18.90;81.30;;;;;;5050457;28;20380;-63
2023/10/11 09:53:14;;;;;;;11.95;4.93;;;18.90;81.20;;;;;;5068348;28;20082;-63
2023/10/11 09:55:58;;;;;;;5.22;3.53;;;18.90;81.10;;;;;;5063606;28;20077;-63
2023/10/11 09:58:28;;;;;;;8.27;4.97;;;18.90;81.10;;;;;;5062609;28;20388;-63
2023/10/11 10:01:18;;;;;;;11.77;6.32;;;19.00;81.50;;;;;;5069409;28;20450;-63
2023/10/11 10:03:52;;;;;;;15.73;6.07;;;19.00;81.50;;;;;;5064388;28;20059;-66
2023/10/11 10:06:18;;;;;;;8.52;5.03;;;19.00;81.90;;;;;;5066745;28;20043;-66
2023/10/11 10:09:23;;;;;;;13.00;5.75;;;18.90;81.80;;;;;;5065129;28;20033;-66
2023/10/11 10:12:05;;;;;;;8.23;4.72;;;19.00;81.80;;;;;;5065019;28;20025;-66
2023/10/11 10:14:35;;;;;;;9.05;5.38;;;19.00;81.90;;;;;;5066603;28;20021;-66
2023/10/11 10:17:15;;;;;;;11.65;7.50;;;19.00;81.80;;;;;;5042525;28;20031;-66
2023/10/11 10:19:45;;;;;;;8.85;5.15;;;19.00;82.10;;;;;;5060132;28;20630;-63
2023/10/11 10:22:22;;;;;;;15.55;6.28;;;19.00;82.10;;;;;;5060055;28;20515;-64
2023/10/11 10:24:54;;;;;;;25.38;6.43;;;19.00;82.40;;;;;;5044322;28;20040;-63
2023/10/11 10:27:33;;;;;;;13.70;5.15;;;19.00;82.50;;;;;;5064583;28;20034;-63
2023/10/11 10:30:00;;;;;;;14.27;6.43;;;19.00;83.20;;;;;;5063239;28;20071;-63
2023/10/11 10:32:27;;;;;;;11.93;5.95;;;18.90;83.20;;;;;;5066657;28;21328;-63
2023/10/11 10:35:18;;;;;;;5.72;3.60;;;18.90;83.10;;;;;;5062133;28;20036;-63
2023/10/11 10:37:46;;;;;;;13.40;4.57;;;19.00;82.90;;;;;;5062261;28;20036;-63
2023/10/11 10:40:26;;;;;;;10.43;5.63;;;19.10;82.70;;;;;;5061777;28;20446;-63
2023/10/11 10:43:07;;;;;;;6.57;4.78;;;19.10;82.70;;;;;;5064694;28;20384;-63
2023/10/11 10:45:36;;;;;;;7.50;4.80;;;19.20;82.90;;;;;;5064429;28;20037;-63
2023/10/11 10:48:23;;;;;;;11.05;5.20;;;19.20;82.80;;;;;;5060769;28;20078;-64
2023/10/11 10:51:03;;;;;;;9.35;4.65;;;19.20;82.70;;;;;;5039099;28;20033;-65
2023/10/11 10:53:50;;;;;;;13.90;5.68;;;19.30;82.60;;;;;;5057737;28;20024;-66
2023/10/11 10:56:26;;;;;;;11.35;6.63;;;19.30;82.60;;;;;;5058849;28;20056;-64
2023/10/11 10:59:27;;;;;;;9.25;5.05;;;19.30;82.80;;;;;;5060411;28;20025;-64
2023/10/11 11:01:53;;;;;;;12.27;6.07;;;19.30;82.90;;;;;;5022472;28;20033;-64
2023/10/11 11:04:24;;;;;;;10.63;5.13;;;19.30;82.90;;;;;;5054943;28;20044;-63
2023/10/11 11:06:52;;;;;;;15.90;5.95;;;19.30;82.90;;;;;;5065727;28;20082;-63
2023/10/11 11:09:19;;;;;;;7.75;5.00;;;19.30;82.90;;;;;;5064847;28;20033;-63
2023/10/11 11:11:53;;;;;;;8.73;4.70;;;19.30;83.10;;;;;;5044508;28;20089;-63
2023/10/11 11:14:23;;;;;;;10.00;5.07;;;19.30;83.00;;;;;;5064138;28;20108;-63
2023/10/11 11:17:09;;;;;;;8.65;5.35;;;19.40;83.00;;;;;;5066716;28;20040;-62
2023/10/11 11:19:35;;;;;;;7.40;4.47;;;19.40;82.90;;;;;;5062148;28;20041;-62
2023/10/11 11:22:12;;;;;;;10.38;5.00;;;19.40;82.90;;;;;;5062812;28;20041;-66
2023/10/11 11:24:41;;;;;;;9.75;4.65;;;19.50;82.80;;;;;;5058709;28;20077;-65
2023/10/11 11:27:26;;;;;;;9.50;6.13;;;19.50;82.80;;;;;;5061842;28;20024;-65
2023/10/11 11:30:02;;;;;;;7.57;4.40;;;19.50;82.90;;;;;;5063639;28;20032;-65
2023/10/11 11:32:45;;;;;;;10.05;4.72;;;19.50;82.90;;;;;;5065137;28;20024;-65
2023/10/11 11:35:25;;;;;;;12.98;5.80;;;19.60;82.70;;;;;;5062445;28;20044;-66
2023/10/11 11:38:02;;;;;;;11.35;5.18;;;19.60;82.80;;;;;;5057342;28;20491;-63
2023/10/11 11:40:31;;;;;;;10.95;6.30;;;19.70;82.60;;;;;;5061933;28;20040;-63
2023/10/11 11:43:00;;;;;;;10.32;5.03;;;19.70;82.70;;;;;;5066392;28;20040;-63
2023/10/11 11:45:29;;;;;;;7.03;4.47;;;19.70;82.60;;;;;;5061979;28;20032;-63
2023/10/11 11:47:58;;;;;;;10.02;5.40;;;19.80;82.50;;;;;;5062228;28;20510;-62
2023/10/11 11:50:25;;;;;;;11.57;4.40;;;19.80;82.30;;;;;;5065861;28;20044;-63
2023/10/11 11:52:51;;;;;;;13.25;4.95;;;19.90;82.10;;;;;;5056652;28;20024;-63
2023/10/11 11:55:22;;;;;;;6.40;4.10;;;20.00;81.80;;;;;;5061739;28;20047;-63
2023/10/11 11:57:48;;;;;;;6.53;3.90;;;20.10;81.70;;;;;;5064409;28;20177;-63
2023/10/11 12:01:08;;;;;;;7.85;3.30;;;20.10;81.50;;;;;;5060092;28;20115;-63
2023/10/11 12:03:09;;;;;;;6.85;4.00;;;20.10;81.40;;;;;;5041527;28;20097;-63
2023/10/11 12:05:37;;;;;;;8.70;3.17;;;20.20;81.20;;;;;;5045390;28;20045;-63
2023/10/11 12:08:07;;;;;;;8.50;3.53;;;20.20;81.10;;;;;;5064407;28;20809;-63
2023/10/11 12:10:33;;;;;;;7.22;3.00;;;20.20;81.00;;;;;;5063591;28;20027;-63
2023/10/11 12:13:05;;;;;;;7.00;3.65;;;20.20;80.90;;;;;;5063943;28;20387;-63
2023/10/11 12:15:33;;;;;;;10.07;3.53;;;20.20;80.90;;;;;;5065226;28;20521;-63
2023/10/11 12:17:59;;;;;;;5.88;3.55;;;20.30;80.90;;;;;;5064605;28;20425;-63
2023/10/11 12:20:33;;;;;;;6.57;3.45;;;20.30;80.80;;;;;;5064845;28;20036;-63
2023/10/11 12:23:10;;;;;;;8.43;3.60;;;20.30;80.70;;;;;;5043171;28;20044;-63
2023/10/11 12:25:39;;;;;;;4.10;2.75;;;20.20;80.70;;;;;;5060187;28;20505;-63
2023/10/11 12:28:06;;;;;;;3.75;2.75;;;20.20;80.80;;;;;;5070352;28;20345;-63
2023/10/11 12:30:36;;;;;;;5.65;3.30;;;20.20;80.70;;;;;;5069070;28;20032;-63
2023/10/11 12:33:08;;;;;;;6.18;4.50;;;20.30;80.60;;;;;;5051869;28;20418;-63
2023/10/11 12:35:39;;;;;;;7.65;3.38;;;20.30;80.60;;;;;;5068209;28;20029;-63
2023/10/11 12:38:06;;;;;;;6.15;2.90;;;20.30;80.60;;;;;;5070534;28;20467;-63
2023/10/11 12:40:34;;;;;;;5.40;3.28;;;20.30;80.50;;;;;;5069318;28;20551;-63
2023/10/11 12:43:02;;;;;;;4.97;3.03;;;20.30;80.50;;;;;;5067418;28;20049;-63
2023/10/11 12:45:27;;;;;;;6.63;3.33;;;20.30;80.50;;;;;;5068113;28;20064;-63
2023/10/11 12:47:53;;;;;;;7.65;2.80;;;20.30;80.60;;;;;;5067066;28;20064;-63
2023/10/11 12:50:20;;;;;;;5.72;3.03;;;20.30;80.80;;;;;;5069569;28;20024;-63
2023/10/11 12:52:46;;;;;;;7.10;2.83;;;20.20;80.80;;;;;;5070069;28;20060;-63
2023/10/11 12:55:15;;;;;;;4.40;2.55;;;20.20;80.80;;;;;;5052094;28;20071;-63
2023/10/11 12:57:40;;;;;;;6.32;3.05;;;20.30;80.80;;;;;;5069056;28;20036;-63
2023/10/11 13:02:58;;;;;;;6.47;3.50;;;20.30;80.80;;;;;;5051634;28;20072;-65
2023/10/11 13:05:28;;;;;;;9.65;3.60;;;20.20;80.90;;;;;;5056240;28;20033;-63
2023/10/11 13:07:54;;;;;;;5.65;3.22;;;20.20;81.00;;;;;;5055597;28;20087;-63
2023/10/11 13:10:23;;;;;;;16.38;3.63;;;20.10;81.10;;;;;;5054039;28;20036;-62
2023/10/11 13:12:53;;;;;;;4.55;2.72;;;20.20;81.10;;;;;;5059372;28;20383;-63
2023/10/11 13:15:21;;;;;;;8.63;3.85;;;20.20;81.00;;;;;;5062756;28;20029;-63
2023/10/11 13:17:47;;;;;;;5.82;3.10;;;20.20;81.00;;;;;;5050557;28;20040;-65
2023/10/11 13:20:18;;;;;;;10.15;3.38;;;20.20;81.00;;;;;;5054146;28;20029;-65
2023/10/11 13:22:52;;;;;;;11.38;4.78;;;20.20;80.90;;;;;;5062333;28;20544;-65
2023/10/11 13:25:24;;;;;;;6.47;3.60;;;20.20;81.00;;;;;;5063346;28;20431;-65
2023/10/11 13:27:56;;;;;;;6.47;3.80;;;20.20;80.90;;;;;;5062390;28;20029;-66
2023/10/11 13:30:23;;;;;;;13.52;4.80;;;20.30;81.10;;;;;;5060166;28;20025;-66
2023/10/11 13:32:51;;;;;;;8.35;4.75;;;20.30;81.00;;;;;;5060653;28;20056;-65
2023/10/11 13:35:21;;;;;;;12.05;5.05;;;20.30;81.20;;;;;;5063981;28;20047;-66
2023/10/11 13:37:47;;;;;;;11.45;5.00;;;20.20;81.30;;;;;;5067018;28;20055;-63
2023/10/11 13:40:17;;;;;;;9.05;4.63;;;20.20;81.20;;;;;;5066173;28;20167;-63
2023/10/11 13:42:44;;;;;;;7.13;3.78;;;20.20;81.20;;;;;;5065350;28;20044;-63
2023/10/11 13:45:14;;;;;;;8.85;4.35;;;20.20;81.20;;;;;;5064720;28;20032;-63
2023/10/11 13:47:41;;;;;;;8.27;3.70;;;20.30;81.20;;;;;;5063014;28;20059;-63
2023/10/11 13:50:09;;;;;;;7.93;4.53;;;20.30;81.60;;;;;;5050900;28;20032;-63
2023/10/11 13:52:39;;;;;;;11.48;5.28;;;20.40;81.00;;;;;;5054816;28;20071;-62
2023/10/11 13:55:11;;;;;;;10.38;5.20;;;20.30;80.90;;;;;;5064610;28;20090;-66
2023/10/11 13:57:38;;;;;;;13.57;5.82;;;20.30;80.90;;;;;;5045154;28;20036;-66
2023/10/11 14:02:50;;;;;;;8.43;4.50;;;20.30;81.20;;;;;;5065352;28;20062;-64